Boggan Bend, Mississippi
Current Conditions -  °F | °C
As of 9:53 AM on Thursday 18 Dec 2014 (Local Time) from KTUP Reporting Station
Overcast Overcast  
Wind Chill: 39°   Ceiling: 3800
Heat Index: 42°   Visibility: 10mi
Dew Point: 36°   Wind: 5mph
Humidity: 79%   Direction: 70°ENE
Pressure: 30.24"   Gusts: NA
Location:  34.433°N, 88.7018°W
Report Text: KTUP 181553Z 07004KT 10SM BKN038 OVC065 06/02 A3024 RMK AO2 SLP241 T00560022
Loading
Personal Weather Stations






























Interactive Weather Map New forecast layout! Learn more

10-Day Weather Forecast

Advertisements
Track Severe Weather on mobile